Time;durP1;ratioP1;P1;durP2;ratioP2;P2;SDS_P1;SDS_P2;PMS_P1;PMS_P2;Temp;Humidity;BMP_temperature;BMP_pressure;BME280_temperature;BME280_humidity;BME280_pressure;Samples;Min_cycle;Max_cycle;Signal;HPM_P1;HPM_P2
2022/08/04 00:02:14;;;;;;;3.45;2.00;;;26.40;99.90;;;;;;4980163;28;20125;-71
2022/08/04 00:04:59;;;;;;;6.53;2.20;;;26.40;99.90;;;;;;4990053;28;20037;-72
2022/08/04 00:07:49;;;;;;;8.27;2.13;;;26.50;99.90;;;;;;4990062;28;20043;-71
2022/08/04 00:10:17;;;;;;;6.47;1.75;;;26.50;99.90;;;;;;4990136;28;20335;-71
2022/08/04 00:12:48;;;;;;;5.15;2.17;;;26.50;99.90;;;;;;4990018;28;20060;-72
2022/08/04 00:15:16;;;;;;;6.43;2.00;;;26.50;99.90;;;;;;4989812;28;20045;-72
2022/08/04 00:18:03;;;;;;;7.63;2.25;;;26.50;99.90;;;;;;4989831;28;20038;-71
2022/08/04 00:20:32;;;;;;;5.72;2.28;;;26.50;99.90;;;;;;4989671;28;20046;-72
2022/08/04 00:23:00;;;;;;;7.30;2.60;;;26.50;99.90;;;;;;4973408;28;20050;-72
2022/08/04 00:25:27;;;;;;;6.28;2.40;;;26.40;99.90;;;;;;4988974;28;20135;-72
2022/08/04 00:27:54;;;;;;;5.82;2.20;;;26.40;99.90;;;;;;4989410;28;20092;-71
2022/08/04 00:30:20;;;;;;;5.10;2.22;;;26.30;99.90;;;;;;4989615;28;20084;-71
2022/08/04 00:32:46;;;;;;;4.53;2.38;;;26.40;99.90;;;;;;5018439;28;20033;-71
2022/08/04 00:35:16;;;;;;;4.10;2.58;;;26.40;99.90;;;;;;5050801;28;20063;-72
2022/08/04 00:37:46;;;;;;;5.78;2.30;;;26.30;99.90;;;;;;5050911;28;20025;-71
2022/08/04 00:40:34;;;;;;;6.03;2.65;;;26.30;99.90;;;;;;5050752;28;20574;-71
2022/08/04 00:43:38;;;;;;;8.55;3.00;;;26.40;99.90;;;;;;5051038;28;20025;-72
2022/08/04 00:46:49;;;;;;;5.43;3.15;;;26.30;99.90;;;;;;5050509;28;20268;-72
2022/08/04 00:49:29;;;;;;;5.70;2.75;;;26.30;99.90;;;;;;5050918;28;20025;-71
2022/08/04 00:52:04;;;;;;;6.45;3.30;;;26.40;99.90;;;;;;5050825;28;20025;-71
2022/08/04 00:55:02;;;;;;;6.07;3.00;;;26.40;99.90;;;;;;5051023;28;20031;-72
2022/08/04 00:57:46;;;;;;;4.93;3.30;;;26.40;99.90;;;;;;5048961;28;20123;-71
2022/08/04 01:00:14;;;;;;;6.05;2.85;;;26.50;99.90;;;;;;5050589;28;20033;-72
2022/08/04 01:03:08;;;;;;;10.35;3.10;;;26.50;99.90;;;;;;5050325;28;20021;-72
2022/08/04 01:05:40;;;;;;;5.68;3.10;;;26.60;99.90;;;;;;5050515;28;20070;-71
2022/08/04 01:08:27;;;;;;;5.47;2.90;;;26.60;99.90;;;;;;5050451;28;20441;-70
2022/08/04 01:11:26;;;;;;;6.03;2.90;;;26.50;99.90;;;;;;5050416;28;20104;-71
2022/08/04 01:14:08;;;;;;;5.32;2.83;;;26.50;99.90;;;;;;5050597;28;20061;-71
2022/08/04 01:16:38;;;;;;;5.43;2.75;;;26.50;99.90;;;;;;5050296;28;20062;-72
2022/08/04 01:22:38;;;;;;;4.15;2.70;;;26.50;99.90;;;;;;5050482;28;20109;-71
2022/08/04 01:25:06;;;;;;;4.80;2.78;;;26.60;99.90;;;;;;5050128;28;20041;-72
2022/08/04 01:27:57;;;;;;;5.03;2.67;;;26.60;99.90;;;;;;5050182;28;20095;-71
2022/08/04 01:30:26;;;;;;;6.05;2.90;;;26.70;99.90;;;;;;5050090;28;20061;-71
2022/08/04 01:33:01;;;;;;;4.88;2.95;;;26.70;99.90;;;;;;5050186;28;20029;-71
2022/08/04 01:35:34;;;;;;;4.50;2.50;;;26.60;99.90;;;;;;5048916;28;20051;-71
2022/08/04 01:38:05;;;;;;;7.00;2.80;;;26.60;99.90;;;;;;5050282;28;20061;-71
2022/08/04 01:40:32;;;;;;;7.07;2.97;;;26.60;99.90;;;;;;5050336;28;20021;-71
2022/08/04 01:43:00;;;;;;;5.28;2.70;;;26.50;99.90;;;;;;5050262;28;20078;-71
2022/08/04 01:45:28;;;;;;;6.07;2.75;;;26.50;99.90;;;;;;5050116;28;20029;-71
2022/08/04 01:47:56;;;;;;;5.35;2.80;;;26.40;99.90;;;;;;5050468;28;20426;-71
2022/08/04 01:50:23;;;;;;;5.38;2.80;;;26.40;99.90;;;;;;5049591;28;20463;-71
2022/08/04 01:52:53;;;;;;;8.00;2.92;;;26.40;99.90;;;;;;5049969;28;20172;-71
2022/08/04 01:55:19;;;;;;;8.38;3.05;;;26.40;99.90;;;;;;5049948;28;20025;-71
2022/08/04 01:57:48;;;;;;;5.35;2.78;;;26.40;99.90;;;;;;5048490;28;20088;-71
2022/08/04 02:00:18;;;;;;;4.95;2.90;;;26.40;99.90;;;;;;5049871;28;20101;-71
2022/08/04 02:02:46;;;;;;;6.03;2.83;;;26.30;99.90;;;;;;5049817;28;20318;-71
2022/08/04 02:05:17;;;;;;;8.20;2.85;;;26.30;99.90;;;;;;5049755;28;20029;-71
2022/08/04 02:08:07;;;;;;;4.50;2.88;;;26.30;99.90;;;;;;5049845;28;20381;-71
2022/08/04 02:10:52;;;;;;;5.30;2.70;;;26.40;99.90;;;;;;5049930;28;20496;-71
2022/08/04 02:13:44;;;;;;;6.30;2.65;;;26.30;99.90;;;;;;5049977;28;20025;-71
2022/08/04 02:16:23;;;;;;;7.70;2.92;;;26.40;99.90;;;;;;5051576;28;20029;-72
2022/08/04 02:19:02;;;;;;;8.07;3.08;;;26.40;99.90;;;;;;5053778;28;20110;-71
2022/08/04 02:21:29;;;;;;;4.50;2.83;;;26.50;99.90;;;;;;5053459;28;20067;-72
2022/08/04 02:24:07;;;;;;;3.90;2.55;;;26.60;99.90;;;;;;5052938;28;20032;-71
2022/08/04 02:26:35;;;;;;;9.23;2.67;;;26.60;99.90;;;;;;5053231;28;20048;-71
2022/08/04 02:29:20;;;;;;;9.27;2.75;;;26.50;99.90;;;;;;5053269;28;20025;-72
2022/08/04 02:32:03;;;;;;;5.18;2.70;;;26.50;99.90;;;;;;5052051;28;20103;-71
2022/08/04 02:34:44;;;;;;;4.88;2.70;;;26.50;99.90;;;;;;5053340;28;20056;-71
2022/08/04 02:37:10;;;;;;;4.53;2.80;;;26.50;99.90;;;;;;5053189;28;20029;-72
2022/08/04 02:39:36;;;;;;;;;;;26.50;99.90;;;;;;5053677;28;20040;-71
2022/08/04 02:42:03;;;;;;;;;;;26.50;99.90;;;;;;5053447;28;19904;-71
2022/08/04 02:44:31;;;;;;;6.93;2.85;;;26.50;99.90;;;;;;5053036;28;19905;-71
2022/08/04 02:47:00;;;;;;;7.97;2.85;;;26.50;99.90;;;;;;5052894;28;20021;-72
2022/08/04 02:49:29;;;;;;;5.32;2.75;;;26.50;99.90;;;;;;5052787;28;20162;-72
2022/08/04 02:51:57;;;;;;;6.35;2.42;;;26.50;99.90;;;;;;5052667;28;20120;-71
2022/08/04 02:54:37;;;;;;;5.50;2.83;;;26.50;99.90;;;;;;5052346;28;20148;-71
2022/08/04 02:57:14;;;;;;;7.47;2.80;;;26.50;99.90;;;;;;5052770;28;20021;-71
2022/08/04 02:59:45;;;;;;;;;;;26.40;99.90;;;;;;5053542;28;20476;-71
2022/08/04 03:02:11;;;;;;;6.55;2.70;;;26.40;99.90;;;;;;5052540;28;19980;-71
2022/08/04 03:04:57;;;;;;;5.53;2.92;;;26.30;99.90;;;;;;5052711;28;20093;-71
2022/08/04 03:07:29;;;;;;;5.60;2.78;;;26.30;99.90;;;;;;5052733;28;20383;-71
2022/08/04 03:10:24;;;;;;;5.82;2.70;;;26.30;99.90;;;;;;5052809;28;20353;-71
2022/08/04 03:13:18;;;;;;;3.75;2.50;;;26.30;99.90;;;;;;5052821;28;20061;-72
2022/08/04 03:16:15;;;;;;;6.30;2.60;;;26.30;99.90;;;;;;5052821;28;20020;-72
2022/08/04 03:19:22;;;;;;;6.47;2.55;;;26.20;99.90;;;;;;5052465;28;20068;-72
2022/08/04 03:22:03;;;;;;;6.55;2.90;;;26.20;99.90;;;;;;5042132;28;20456;-72
2022/08/04 03:24:32;;;;;;;5.18;2.50;;;26.10;99.90;;;;;;5052971;28;20120;-71
2022/08/04 03:27:18;;;;;;;7.28;2.70;;;26.20;99.90;;;;;;5052198;28;20410;-71
2022/08/04 03:30:03;;;;;;;5.30;3.00;;;26.20;99.90;;;;;;5048746;28;20044;-70
2022/08/04 03:32:53;;;;;;;9.35;3.05;;;26.20;99.90;;;;;;5053141;28;20051;-70
2022/08/04 03:35:51;;;;;;;6.25;2.47;;;26.30;99.90;;;;;;5052977;28;20052;-71
2022/08/04 03:38:47;;;;;;;5.72;2.75;;;26.30;99.90;;;;;;5051345;28;20033;-71
2022/08/04 03:41:35;;;;;;;5.25;2.80;;;26.30;99.90;;;;;;5052377;28;20028;-71
2022/08/04 03:44:04;;;;;;;4.40;2.60;;;26.20;99.90;;;;;;5052098;28;20021;-71
2022/08/04 03:46:33;;;;;;;7.55;2.90;;;26.30;99.90;;;;;;5051776;28;20103;-71
2022/08/04 03:49:40;;;;;;;10.48;2.72;;;26.30;99.90;;;;;;5052312;28;20510;-71
2022/08/04 03:55:39;;;;;;;8.77;2.63;;;26.30;99.90;;;;;;5052501;28;20092;-70
2022/08/04 03:58:42;;;;;;;6.65;2.60;;;26.30;99.90;;;;;;5052431;28;20033;-70
2022/08/04 04:01:46;;;;;;;5.68;2.55;;;26.30;99.90;;;;;;5052313;28;20098;-70
2022/08/04 04:04:24;;;;;;;7.13;2.70;;;26.30;99.90;;;;;;5050506;28;20024;-70
2022/08/04 04:07:19;;;;;;;6.25;2.53;;;26.30;99.90;;;;;;5052198;28;20021;-71
2022/08/04 04:10:04;;;;;;;4.60;2.63;;;26.30;99.90;;;;;;5052708;28;20028;-70
2022/08/04 04:12:48;;;;;;;3.78;2.55;;;26.20;99.90;;;;;;5052317;28;20029;-71
2022/08/04 04:15:35;;;;;;;6.65;2.83;;;26.10;99.90;;;;;;5052346;28;20075;-71
2022/08/04 04:18:07;;;;;;;5.80;3.00;;;26.10;99.90;;;;;;5052697;28;20468;-70
2022/08/04 04:20:50;;;;;;;5.75;2.80;;;26.10;99.90;;;;;;5052404;28;20037;-71
2022/08/04 04:23:19;;;;;;;7.03;2.92;;;26.10;99.90;;;;;;5052908;28;20051;-71
2022/08/04 04:26:06;;;;;;;7.88;2.90;;;26.10;99.90;;;;;;5052298;28;20068;-71
2022/08/04 04:28:53;;;;;;;6.55;2.95;;;26.10;99.90;;;;;;5052922;28;20112;-71
2022/08/04 04:31:47;;;;;;;6.93;2.60;;;26.10;99.90;;;;;;5030212;28;20037;-71
2022/08/04 04:34:33;;;;;;;7.93;3.10;;;26.10;99.90;;;;;;5028337;28;20029;-71
2022/08/04 04:37:30;;;;;;;9.35;3.30;;;26.10;99.90;;;;;;5030752;28;20051;-71
2022/08/04 04:40:07;;;;;;;8.02;2.97;;;26.10;99.90;;;;;;5030372;28;20144;-71
2022/08/04 04:42:55;;;;;;;6.80;3.08;;;26.10;99.90;;;;;;5030385;28;20134;-71
2022/08/04 04:45:57;;;;;;;5.53;2.92;;;26.10;99.90;;;;;;5030798;28;20036;-71
2022/08/04 04:48:44;;;;;;;7.22;3.42;;;26.00;99.90;;;;;;5030096;28;20057;-71
2022/08/04 04:51:23;;;;;;;6.25;3.15;;;26.00;99.90;;;;;;5030573;28;20072;-71
2022/08/04 04:54:04;;;;;;;4.88;2.67;;;25.90;99.90;;;;;;5030590;28;20140;-71
2022/08/04 04:56:54;;;;;;;4.85;2.95;;;26.00;99.90;;;;;;5030256;28;20040;-71
2022/08/04 04:59:26;;;;;;;7.68;3.50;;;26.00;99.90;;;;;;5030272;28;20038;-71
2022/08/04 05:01:55;;;;;;;6.82;2.83;;;26.00;99.90;;;;;;5030355;28;20409;-71
2022/08/04 05:04:56;;;;;;;11.18;3.08;;;26.10;99.90;;;;;;5029897;28;20489;-71
2022/08/04 05:07:40;;;;;;;6.13;2.92;;;26.10;99.90;;;;;;5031683;28;20026;-71
2022/08/04 05:10:26;;;;;;;5.18;3.00;;;26.10;99.90;;;;;;5052391;28;20416;-71
2022/08/04 05:12:58;;;;;;;4.93;2.80;;;26.30;99.90;;;;;;5040295;28;20058;-70
2022/08/04 05:15:33;;;;;;;9.93;2.90;;;26.30;99.90;;;;;;5051634;28;20029;-70
2022/08/04 05:18:01;;;;;;;7.00;2.63;;;26.40;99.90;;;;;;5051523;28;20025;-70
2022/08/04 05:20:33;;;;;;;7.75;2.70;;;26.40;99.90;;;;;;5051641;28;20104;-70
2022/08/04 05:23:12;;;;;;;6.90;3.00;;;26.90;99.90;;;;;;5051722;28;20032;-72
2022/08/04 05:26:07;;;;;;;8.38;3.15;;;28.20;99.90;;;;;;5049946;28;20082;-70
2022/08/04 05:28:36;;;;;;;;;;;29.60;99.90;;;;;;5049888;28;20406;-71
2022/08/04 05:31:11;;;;;;;5.95;2.95;;;30.80;99.70;;;;;;5051847;28;19995;-71
2022/08/04 05:33:48;;;;;;;9.40;3.17;;;31.60;97.90;;;;;;5051376;28;20032;-70
2022/08/04 05:36:18;;;;;;;7.53;2.97;;;32.30;96.50;;;;;;5051865;28;20154;-71
2022/08/04 05:38:47;;;;;;;7.10;2.80;;;32.60;95.80;;;;;;5051210;28;20036;-71
2022/08/04 05:41:14;;;;;;;5.45;2.88;;;33.00;94.50;;;;;;5051202;28;20029;-71
2022/08/04 05:43:42;;;;;;;8.52;3.13;;;33.30;94.10;;;;;;5050823;28;20377;-71
2022/08/04 05:46:10;;;;;;;9.50;3.03;;;33.80;92.40;;;;;;5051118;28;20112;-72
2022/08/04 05:48:37;;;;;;;8.70;3.17;;;33.90;92.30;;;;;;5051309;28;20087;-71
2022/08/04 05:51:08;;;;;;;9.35;3.78;;;34.30;91.50;;;;;;5052475;28;20025;-71
2022/08/04 05:53:34;;;;;;;11.18;5.13;;;34.80;91.00;;;;;;5055278;28;20028;-71
2022/08/04 05:56:02;;;;;;;12.73;6.47;;;35.20;90.00;;;;;;5055167;28;20029;-71
2022/08/04 05:58:32;;;;;;;11.07;5.85;;;35.30;89.10;;;;;;5055084;28;20112;-71
2022/08/04 06:01:00;;;;;;;15.93;5.60;;;35.60;88.30;;;;;;5055181;28;20028;-71
2022/08/04 06:03:30;;;;;;;10.07;5.10;;;36.40;86.50;;;;;;5054861;28;20055;-71
2022/08/04 06:05:57;;;;;;;8.85;4.60;;;37.30;84.20;;;;;;5055069;28;20100;-71
2022/08/04 06:08:24;;;;;;;9.90;3.70;;;38.10;82.00;;;;;;5055061;28;20033;-71
2022/08/04 06:10:52;;;;;;;8.18;3.42;;;38.70;79.50;;;;;;5054531;28;20025;-71
2022/08/04 06:13:25;;;;;;;9.43;3.58;;;38.70;78.50;;;;;;5055001;28;20032;-71
2022/08/04 06:15:55;;;;;;;9.63;3.60;;;38.60;78.20;;;;;;5054749;28;20047;-70
2022/08/04 06:18:22;;;;;;;9.07;3.88;;;38.30;78.70;;;;;;5055350;28;20044;-71
2022/08/04 06:20:51;;;;;;;8.57;3.40;;;39.20;76.60;;;;;;5055227;28;20086;-71
2022/08/04 06:23:19;;;;;;;10.85;3.53;;;39.60;76.50;;;;;;5055305;28;20025;-71
2022/08/04 06:25:54;;;;;;;6.30;3.65;;;40.00;74.80;;;;;;5055365;28;20056;-72
2022/08/04 06:28:21;;;;;;;11.17;4.30;;;40.90;72.90;;;;;;5055705;28;20013;-72
2022/08/04 06:30:49;;;;;;;10.05;3.80;;;41.60;71.80;;;;;;5055323;28;20032;-72
2022/08/04 06:33:26;;;;;;;7.68;3.55;;;42.10;70.00;;;;;;5055091;28;20107;-72
2022/08/04 06:35:57;;;;;;;7.18;3.13;;;41.80;69.60;;;;;;5055104;28;20036;-72
2022/08/04 06:38:28;;;;;;;8.73;2.63;;;41.30;69.90;;;;;;5055347;28;20068;-72
2022/08/04 06:40:58;;;;;;;10.00;2.85;;;41.20;69.50;;;;;;5054892;28;20036;-72
2022/08/04 06:43:27;;;;;;;7.20;2.38;;;41.40;69.40;;;;;;5055025;28;20040;-72
2022/08/04 06:45:55;;;;;;;9.18;2.72;;;41.50;68.70;;;;;;5055184;28;20052;-73
2022/08/04 06:48:21;;;;;;;8.45;2.80;;;42.00;68.00;;;;;;5054647;28;20025;-72
2022/08/04 06:50:49;;;;;;;8.27;2.60;;;41.80;67.20;;;;;;5054589;28;20451;-72
2022/08/04 06:53:16;;;;;;;9.30;2.70;;;42.80;66.40;;;;;;5055321;28;20029;-72
2022/08/04 06:55:44;;;;;;;5.82;2.17;;;43.50;65.50;;;;;;5054417;28;20021;-72
2022/08/04 06:58:11;;;;;;;7.78;2.13;;;44.60;63.90;;;;;;5054798;28;20084;-73
2022/08/04 07:00:40;;;;;;;4.63;1.77;;;45.10;62.10;;;;;;5054669;28;20540;-72
2022/08/04 07:03:06;;;;;;;7.88;1.92;;;44.30;62.30;;;;;;5054336;28;20477;-72
2022/08/04 07:05:33;;;;;;;4.88;1.67;;;44.80;61.90;;;;;;5054858;28;20446;-73
2022/08/04 07:08:00;;;;;;;9.68;1.60;;;45.40;60.90;;;;;;5054842;28;20033;-72
2022/08/04 07:10:30;;;;;;;8.50;2.20;;;44.70;59.80;;;;;;5054525;28;20157;-73
2022/08/04 07:12:58;;;;;;;12.20;2.38;;;44.60;62.40;;;;;;5054361;28;20032;-72
2022/08/04 07:15:25;;;;;;;14.25;2.58;;;45.60;61.20;;;;;;5054382;28;20032;-72
2022/08/04 07:17:53;;;;;;;12.68;2.83;;;46.20;60.20;;;;;;5054080;28;20043;-73
2022/08/04 07:20:19;;;;;;;10.40;2.78;;;45.90;60.40;;;;;;5054642;28;20058;-73
2022/08/04 07:22:47;;;;;;;23.00;3.22;;;46.30;59.80;;;;;;5054156;28;20389;-71
2022/08/04 07:25:15;;;;;;;12.25;2.40;;;46.40;59.60;;;;;;5054098;28;20075;-73
2022/08/04 07:27:42;;;;;;;10.32;2.50;;;46.20;59.50;;;;;;5054406;28;20028;-71
2022/08/04 07:30:09;;;;;;;9.82;2.47;;;45.90;59.40;;;;;;5054222;28;20369;-72
2022/08/04 07:32:37;;;;;;;24.45;2.70;;;45.30;59.60;;;;;;5053731;28;20029;-71
2022/08/04 07:35:06;;;;;;;8.85;2.58;;;44.10;60.30;;;;;;5053609;28;20112;-71
2022/08/04 07:37:32;;;;;;;9.70;2.50;;;43.20;61.40;;;;;;5054193;28;20027;-71
2022/08/04 07:39:59;;;;;;;18.58;2.42;;;42.10;62.70;;;;;;5053697;28;20036;-71
2022/08/04 07:42:26;;;;;;;8.60;2.70;;;41.20;64.50;;;;;;5053344;28;20056;-71
2022/08/04 07:44:52;;;;;;;9.98;2.55;;;40.90;65.60;;;;;;5053440;28;20137;-71
2022/08/04 07:47:18;;;;;;;16.40;3.13;;;40.70;66.00;;;;;;5053731;28;20025;-71
2022/08/04 07:49:44;;;;;;;9.02;2.80;;;40.60;66.10;;;;;;5053355;28;20076;-72
2022/08/04 07:52:11;;;;;;;7.43;2.55;;;40.50;65.80;;;;;;5053045;28;20033;-71
2022/08/04 07:54:38;;;;;;;10.55;2.60;;;40.30;65.80;;;;;;5052625;28;20024;-71
2022/08/04 07:57:04;;;;;;;10.27;2.65;;;40.10;66.10;;;;;;5052855;28;20036;-71
2022/08/04 07:59:32;;;;;;;10.10;2.45;;;39.80;66.30;;;;;;5052562;28;20047;-71
2022/08/04 08:02:00;;;;;;;7.32;2.72;;;39.60;66.30;;;;;;5052739;28;20146;-71
2022/08/04 08:04:27;;;;;;;11.65;2.78;;;39.10;66.70;;;;;;5052876;28;20539;-72
2022/08/04 08:06:53;;;;;;;12.50;3.42;;;39.00;68.20;;;;;;5051182;28;20071;-72
2022/08/04 08:09:20;;;;;;;13.85;3.83;;;39.00;68.80;;;;;;5053058;28;20022;-71
2022/08/04 08:11:48;;;;;;;18.27;3.95;;;38.90;69.40;;;;;;5052697;28;20039;-72
2022/08/04 08:14:16;;;;;;;11.00;3.03;;;38.80;69.80;;;;;;5052395;28;20025;-71
2022/08/04 08:16:42;;;;;;;10.65;2.97;;;38.60;70.00;;;;;;5052606;28;20370;-71
2022/08/04 08:19:09;;;;;;;11.25;3.63;;;38.30;71.00;;;;;;5053380;28;20033;-71
2022/08/04 08:21:35;;;;;;;15.50;3.10;;;38.60;70.90;;;;;;5053063;28;20031;-71
2022/08/04 08:24:01;;;;;;;9.82;2.40;;;38.60;70.40;;;;;;5053085;28;20115;-71
2022/08/04 08:26:29;;;;;;;10.73;2.45;;;38.20;70.60;;;;;;5053260;28;20100;-72
2022/08/04 08:28:56;;;;;;;6.97;2.15;;;38.00;71.40;;;;;;5052795;28;20035;-72
2022/08/04 08:31:22;;;;;;;9.52;2.30;;;38.00;71.10;;;;;;5052806;28;20104;-72
2022/08/04 08:33:50;;;;;;;8.38;2.10;;;38.10;71.60;;;;;;5052820;28;20025;-72
2022/08/04 08:36:36;;;;;;;7.60;1.92;;;38.20;70.80;;;;;;5052508;28;20048;-72
2022/08/04 08:39:11;;;;;;;10.80;2.35;;;37.90;70.80;;;;;;5048756;28;20083;-72
2022/08/04 08:42:14;;;;;;;7.43;2.20;;;37.80;71.90;;;;;;5052919;28;20495;-71
2022/08/04 08:45:14;;;;;;;12.77;2.60;;;38.00;72.50;;;;;;5052666;28;20470;-72
2022/08/04 08:48:02;;;;;;;4.13;1.73;;;38.10;72.10;;;;;;5052566;28;20025;-72
2022/08/04 08:50:46;;;;;;;6.00;1.98;;;38.10;71.00;;;;;;5053127;28;20146;-71
2022/08/04 08:53:26;;;;;;;9.27;2.08;;;37.70;72.10;;;;;;5051983;28;20029;-72
2022/08/04 08:56:10;;;;;;;6.20;2.17;;;37.90;72.80;;;;;;5052205;28;20021;-72
2022/08/04 08:59:13;;;;;;;16.20;2.80;;;38.00;72.60;;;;;;5052227;28;20052;-72
2022/08/04 09:02:16;;;;;;;6.80;1.80;;;38.00;73.00;;;;;;5052117;28;20104;-72
2022/08/04 09:05:03;;;;;;;3.75;1.83;;;37.80;72.60;;;;;;5052098;28;20131;-72
2022/08/04 09:08:08;;;;;;;31.42;3.58;;;37.70;71.40;;;;;;5052059;28;20025;-72
2022/08/04 09:10:33;;;;;;;;;;;37.50;71.50;;;;;;5051834;28;20116;-72
2022/08/04 09:13:15;;;;;;;6.40;1.80;;;37.30;72.30;;;;;;5050270;28;19944;-72
2022/08/04 09:16:07;;;;;;;5.78;1.80;;;37.10;72.60;;;;;;5051832;28;20025;-72
2022/08/04 09:18:43;;;;;;;12.45;2.00;;;37.20;73.50;;;;;;5052087;28;20094;-72
2022/08/04 09:21:16;;;;;;;4.20;1.90;;;36.90;74.60;;;;;;5051983;28;20075;-72
2022/08/04 09:24:02;;;;;;;4.55;1.75;;;37.00;74.10;;;;;;5051860;28;20029;-72
2022/08/04 09:26:54;;;;;;;7.90;2.17;;;37.00;74.70;;;;;;5053935;28;20036;-72
2022/08/04 09:29:40;;;;;;;5.07;2.03;;;36.80;75.00;;;;;;5054446;28;20490;-72
2022/08/04 09:32:37;;;;;;;5.93;1.95;;;36.50;76.50;;;;;;5055806;28;20489;-73
2022/08/04 09:35:18;;;;;;;7.45;2.10;;;36.20;76.80;;;;;;5055917;28;20103;-73
2022/08/04 09:37:56;;;;;;;7.30;2.13;;;36.10;77.00;;;;;;5055828;28;20021;-72
2022/08/04 09:40:33;;;;;;;8.57;2.20;;;36.10;77.20;;;;;;5053755;28;20116;-70
2022/08/04 09:43:32;;;;;;;7.10;2.20;;;36.20;76.90;;;;;;5055568;28;20096;-71
2022/08/04 09:46:29;;;;;;;12.80;2.58;;;36.20;76.20;;;;;;5055283;28;20406;-73
2022/08/04 09:49:05;;;;;;;13.50;2.55;;;36.10;76.80;;;;;;5054502;28;20488;-72
2022/08/04 09:51:34;;;;;;;5.28;2.22;;;36.30;75.80;;;;;;5055448;28;20120;-72
2022/08/04 09:54:41;;;;;;;7.95;2.22;;;36.40;75.30;;;;;;5055256;28;20036;-71
2022/08/04 09:57:33;;;;;;;7.70;2.40;;;35.80;74.80;;;;;;5055157;28;20461;-71
2022/08/04 10:00:09;;;;;;;5.40;2.40;;;35.90;75.20;;;;;;5055035;28;20051;-72
2022/08/04 10:02:40;;;;;;;5.68;1.80;;;35.90;74.90;;;;;;5055309;28;20183;-72
2022/08/04 10:05:16;;;;;;;5.93;1.90;;;35.80;74.70;;;;;;5054934;28;20354;-72
2022/08/04 10:07:53;;;;;;;3.85;1.60;;;35.80;73.30;;;;;;5054974;28;20102;-72
2022/08/04 10:10:33;;;;;;;14.77;2.28;;;35.60;72.70;;;;;;5055246;28;20023;-73
2022/08/04 10:13:08;;;;;;;4.10;1.40;;;35.70;72.80;;;;;;5054718;28;20017;-72
2022/08/04 10:15:47;;;;;;;9.82;1.88;;;35.70;73.10;;;;;;5055431;28;20077;-72
2022/08/04 10:18:49;;;;;;;5.28;1.23;;;35.80;73.00;;;;;;5055032;28;20116;-72
2022/08/04 10:21:39;;;;;;;6.63;1.58;;;36.00;72.20;;;;;;5055211;28;20075;-72
2022/08/04 10:24:29;;;;;;;6.03;1.70;;;36.10;72.20;;;;;;5054626;28;20096;-72
2022/08/04 10:27:20;;;;;;;7.22;1.80;;;36.10;71.10;;;;;;5055126;28;20082;-73
2022/08/04 10:29:47;;;;;;;6.88;1.45;;;36.10;71.00;;;;;;5054763;28;20039;-72
2022/08/04 10:32:28;;;;;;;6.65;1.60;;;36.00;69.30;;;;;;5054310;28;20480;-72
2022/08/04 10:35:21;;;;;;;9.50;1.70;;;36.00;68.40;;;;;;5054551;28;20029;-72
2022/08/04 10:38:12;;;;;;;4.55;1.70;;;35.80;69.20;;;;;;5052221;28;20135;-71
2022/08/04 10:41:04;;;;;;;3.92;1.55;;;35.80;70.20;;;;;;5054318;28;20485;-71
2022/08/04 10:43:43;;;;;;;2.95;1.33;;;35.70;70.20;;;;;;5032060;28;20521;-72
2022/08/04 10:46:17;;;;;;;3.15;1.25;;;35.70;69.40;;;;;;5032384;28;20033;-72
2022/08/04 10:48:57;;;;;;;6.82;1.98;;;35.40;68.10;;;;;;5031904;28;20044;-73
2022/08/04 10:51:35;;;;;;;4.72;1.42;;;35.40;69.30;;;;;;5030874;28;20517;-72
2022/08/04 10:54:14;;;;;;;4.80;1.40;;;35.30;68.40;;;;;;5031657;28;20063;-72
2022/08/04 10:56:50;;;;;;;9.80;1.83;;;35.30;69.10;;;;;;5031709;28;20101;-71
2022/08/04 10:59:53;;;;;;;9.25;2.30;;;35.50;67.20;;;;;;5031933;28;20057;-72
2022/08/04 11:02:48;;;;;;;5.53;1.48;;;35.30;70.10;;;;;;5031829;28;20033;-72
2022/08/04 11:05:38;;;;;;;3.17;1.30;;;35.20;70.80;;;;;;5031975;28;20030;-71
2022/08/04 11:08:33;;;;;;;9.40;2.03;;;35.20;70.80;;;;;;5021874;28;20043;-72
2022/08/04 11:11:07;;;;;;;3.35;1.25;;;35.20;70.00;;;;;;5020919;28;20060;-72
2022/08/04 11:13:41;;;;;;;3.90;1.30;;;35.40;68.70;;;;;;5031922;28;20104;-72
2022/08/04 11:16:26;;;;;;;7.72;1.45;;;35.60;68.90;;;;;;5031702;28;20156;-72
2022/08/04 11:19:22;;;;;;;6.07;1.40;;;35.40;69.20;;;;;;5032464;28;20145;-70
2022/08/04 11:21:57;;;;;;;3.65;1.20;;;35.40;65.80;;;;;;5054657;28;20045;-70
2022/08/04 11:24:52;;;;;;;3.53;1.60;;;35.60;67.10;;;;;;5054354;28;20163;-72
2022/08/04 11:27:47;;;;;;;4.10;1.33;;;35.40;70.50;;;;;;5055183;28;20025;-72
2022/08/04 11:30:16;;;;;;;5.93;1.40;;;35.50;73.90;;;;;;5053126;28;20023;-71
2022/08/04 11:32:45;;;;;;;5.20;1.40;;;35.30;74.50;;;;;;5054396;28;20702;-72
2022/08/04 11:35:49;;;;;;;5.15;1.50;;;35.30;74.20;;;;;;5054215;28;20467;-71
2022/08/04 11:38:31;;;;;;;3.08;1.40;;;35.20;72.30;;;;;;5054344;28;20044;-71
2022/08/04 11:41:00;;;;;;;8.48;1.35;;;35.10;72.90;;;;;;5054816;28;20406;-71
2022/08/04 11:43:43;;;;;;;3.55;1.10;;;35.20;74.90;;;;;;5054556;28;20017;-71
2022/08/04 11:46:18;;;;;;;5.25;1.55;;;35.20;74.90;;;;;;5054299;28;20067;-71
2022/08/04 11:49:22;;;;;;;5.65;1.38;;;35.10;77.80;;;;;;5053516;28;20074;-70
2022/08/04 11:51:50;;;;;;;3.13;1.40;;;35.10;76.00;;;;;;5053169;28;20029;-71
2022/08/04 11:54:18;;;;;;;7.72;1.60;;;35.00;77.20;;;;;;5053630;28;20037;-71
2022/08/04 11:56:44;;;;;;;3.30;1.30;;;35.00;77.40;;;;;;5053930;28;20114;-71
2022/08/04 11:59:10;;;;;;;4.65;1.38;;;35.10;73.80;;;;;;5053684;28;20365;-71
2022/08/04 12:02:14;;;;;;;4.75;1.52;;;35.10;73.10;;;;;;5053217;28;20017;-72
2022/08/04 12:04:59;;;;;;;10.95;1.83;;;35.00;77.20;;;;;;5042671;28;20143;-71
2022/08/04 12:08:01;;;;;;;4.65;1.60;;;35.20;76.50;;;;;;5053321;28;20027;-71
2022/08/04 12:11:05;;;;;;;2.85;1.40;;;35.30;76.40;;;;;;5041761;28;20041;-71
2022/08/04 12:13:47;;;;;;;8.65;1.83;;;35.10;80.20;;;;;;5033988;28;20118;-74
2022/08/04 12:16:33;;;;;;;6.95;1.75;;;35.10;82.70;;;;;;5053006;28;20017;-76
2022/08/04 12:19:21;;;;;;;4.30;1.55;;;35.10;77.90;;;;;;5053457;28;20358;-76
2022/08/04 12:21:55;;;;;;;27.52;3.13;;;34.90;77.80;;;;;;5053195;28;20052;-72
2022/08/04 12:24:46;;;;;;;3.63;1.48;;;35.10;80.90;;;;;;5053158;28;20052;-71
2022/08/04 12:27:25;;;;;;;3.72;1.48;;;35.10;82.70;;;;;;5053263;28;20017;-74
2022/08/04 12:29:54;;;;;;;4.18;1.42;;;34.90;80.80;;;;;;5053549;28;20100;-72
2022/08/04 12:32:27;;;;;;;4.90;1.67;;;34.90;84.00;;;;;;5053198;28;20059;-71
2022/08/04 12:35:22;;;;;;;4.72;1.75;;;34.80;83.30;;;;;;5053768;28;20090;-72
2022/08/04 12:38:03;;;;;;;4.38;1.58;;;34.60;84.50;;;;;;5030997;28;20045;-71
2022/08/04 12:40:39;;;;;;;4.53;1.40;;;34.60;85.50;;;;;;5031318;28;20529;-71
2022/08/04 12:43:32;;;;;;;5.43;1.42;;;34.50;86.50;;;;;;5031561;28;20055;-71
2022/08/04 12:46:03;;;;;;;9.52;1.90;;;34.60;85.80;;;;;;5017876;28;20120;-71
2022/08/04 12:48:31;;;;;;;3.85;1.60;;;34.70;86.40;;;;;;5030943;28;20107;-71
2022/08/04 12:50:58;;;;;;;4.20;1.45;;;34.90;85.30;;;;;;5013133;28;20025;-72
2022/08/04 12:53:43;;;;;;;7.03;1.40;;;34.80;84.60;;;;;;5030370;28;20564;-72
2022/08/04 12:56:14;;;;;;;6.13;2.08;;;34.70;86.70;;;;;;5013460;28;20061;-71
2022/08/04 12:58:45;;;;;;;4.45;1.48;;;34.90;87.10;;;;;;5030247;28;20120;-72
2022/08/04 13:01:16;;;;;;;6.72;1.55;;;34.90;85.80;;;;;;5029798;28;20037;-71
2022/08/04 13:03:50;;;;;;;5.88;1.52;;;34.90;83.00;;;;;;5030222;28;20079;-72
2022/08/04 13:06:22;;;;;;;4.85;1.23;;;34.90;83.70;;;;;;5029974;28;20033;-72
2022/08/04 13:08:48;;;;;;;6.53;1.42;;;35.10;81.70;;;;;;5029988;28;20509;-72
2022/08/04 13:11:16;;;;;;;;;;;35.10;82.10;;;;;;5030513;28;20505;-72
2022/08/04 13:13:44;;;;;;;4.15;1.35;;;35.20;83.00;;;;;;5036538;28;19912;-71
2022/08/04 13:16:11;;;;;;;3.67;1.25;;;35.20;84.50;;;;;;5052190;28;20434;-71
2022/08/04 13:18:45;;;;;;;3.67;1.20;;;35.10;81.60;;;;;;5052519;28;20354;-70
2022/08/04 13:21:19;;;;;;;6.65;1.42;;;35.10;84.00;;;;;;5052972;28;20013;-71
2022/08/04 13:23:45;;;;;;;3.85;1.50;;;34.90;85.90;;;;;;5052327;28;20049;-71
2022/08/04 13:26:16;;;;;;;3.60;1.67;;;34.90;84.50;;;;;;5052953;28;20029;-71
2022/08/04 13:28:48;;;;;;;4.43;1.10;;;35.00;81.00;;;;;;5052959;28;20429;-71
2022/08/04 13:31:18;;;;;;;5.50;1.40;;;35.10;79.60;;;;;;5052877;28;20017;-72
2022/08/04 13:33:48;;;;;;;3.70;1.35;;;35.10;82.30;;;;;;5052334;28;20040;-72
2022/08/04 13:36:16;;;;;;;3.88;1.42;;;35.20;82.90;;;;;;5052445;28;20013;-71
2022/08/04 13:39:16;;;;;;;3.13;1.20;;;35.40;80.80;;;;;;5052270;28;20047;-71
2022/08/04 13:41:47;;;;;;;2.88;1.42;;;35.40;82.80;;;;;;5051031;28;20025;-71
2022/08/04 13:44:17;;;;;;;6.38;3.90;;;35.30;83.80;;;;;;5052491;28;20122;-71
2022/08/04 13:46:54;;;;;;;3.88;2.40;;;35.30;80.40;;;;;;5052002;28;20037;-72
2022/08/04 13:49:21;;;;;;;5.25;2.30;;;35.30;78.80;;;;;;5052055;28;20029;-73